Ryer Island, California
Current Conditions -  °F | °C
As of 9:58 AM on Friday 31 Oct 2014 (Local Time) from KSUU Reporting Station
Light Rain Light Rain  
Wind Chill: 63°   Ceiling: Unl
Heat Index: 63°   Visibility: 10mi
Dew Point: 59°   Wind: 10mph
Humidity: 88%   Direction: 240°WSW
Pressure: 29.86"   Gusts: NA
Location:  38.2298°N, 121.579°W
Report Text: KSUU 311658Z AUTO 24009KT 10SM -RA SCT025 SCT085 17/15 A2986 RMK AO2 RAB1657 SLP118 $
Loading
Personal Weather Stations






























Interactive Weather Map
Tropical Storm Tracking
New forecast layout! Learn more

10-Day Weather Forecast

Advertisements
Track Severe Weather on mobile